createdAt,value
2019-02-11T00:03:26.458Z,0.70
2019-02-11T00:05:55.070Z,0.82
2019-02-11T00:08:23.685Z,0.75
2019-02-11T00:10:52.308Z,0.80
2019-02-11T00:13:20.914Z,0.70
2019-02-11T00:15:49.558Z,0.60
2019-02-11T00:18:18.152Z,0.70
2019-02-11T00:20:46.809Z,0.90
2019-02-11T00:23:15.437Z,0.65
2019-02-11T00:25:44.048Z,0.70
2019-02-11T00:28:12.645Z,0.80
2019-02-11T00:30:41.272Z,1.30
2019-02-11T00:33:09.862Z,1.10
2019-02-11T00:35:38.484Z,1.05
2019-02-11T00:38:07.077Z,0.75
2019-02-11T00:40:35.684Z,0.90
2019-02-11T00:43:04.362Z,1.05
2019-02-11T00:45:32.978Z,1.12
2019-02-11T00:48:01.593Z,0.93
2019-02-11T00:50:30.271Z,0.78
2019-02-11T00:52:58.926Z,1.45
2019-02-11T00:55:27.518Z,1.45
2019-02-11T00:57:56.126Z,2.10
2019-02-11T01:00:24.714Z,1.45
2019-02-11T01:02:53.345Z,0.90
2019-02-11T01:05:22.012Z,0.90
2019-02-11T01:07:50.560Z,0.93
2019-02-11T01:10:19.153Z,2.25
2019-02-11T01:12:47.768Z,0.90
2019-02-11T01:15:16.445Z,2.08
2019-02-11T01:17:45.134Z,1.20
2019-02-11T01:20:13.743Z,0.95
2019-02-11T01:22:42.369Z,0.93
2019-02-11T01:25:11.036Z,1.10
2019-02-11T01:27:39.670Z,1.10
2019-02-11T01:30:27.508Z,0.90
2019-02-11T01:32:56.168Z,1.62
2019-02-11T01:35:24.773Z,1.10
2019-02-11T01:38:00.753Z,1.65
2019-02-11T01:40:29.400Z,3.87
2019-02-11T01:42:58.037Z,1.10
2019-02-11T01:45:26.647Z,1.20
2019-02-11T01:47:55.267Z,1.27
2019-02-11T01:50:23.883Z,1.40
2019-02-11T01:52:52.637Z,2.90
2019-02-11T01:55:21.237Z,1.47
2019-02-11T01:57:49.920Z,2.17
2019-02-11T02:00:18.524Z,1.10
2019-02-11T02:02:47.159Z,1.65
2019-02-11T02:08:29.618Z,1.35
2019-02-11T02:10:58.229Z,1.30
2019-02-11T02:13:26.894Z,1.30
2019-02-11T02:15:55.490Z,1.32
2019-02-11T02:18:24.121Z,1.30
2019-02-11T02:20:52.718Z,1.02
2019-02-11T02:23:21.361Z,3.72
2019-02-11T02:25:50.044Z,0.80
2019-02-11T02:28:18.679Z,1.32
2019-02-11T02:30:47.300Z,1.40
2019-02-11T02:33:15.905Z,2.40
2019-02-11T02:35:44.533Z,2.92
2019-02-11T02:38:13.121Z,1.50
2019-02-11T02:40:41.817Z,1.27
2019-02-11T02:43:10.413Z,0.85
2019-02-11T02:45:39.023Z,0.80
2019-02-11T02:48:07.620Z,0.80
2019-02-11T02:50:36.245Z,1.35
2019-02-11T02:53:04.851Z,1.00
2019-02-11T02:55:33.472Z,0.82
2019-02-11T02:58:02.080Z,0.70
2019-02-11T03:00:30.766Z,0.90
2019-02-11T03:02:59.401Z,1.30
2019-02-11T03:05:28.056Z,1.00
2019-02-11T03:07:56.673Z,0.88
2019-02-11T03:10:25.279Z,2.17
2019-02-11T03:12:53.886Z,0.60
2019-02-11T03:15:22.500Z,1.37
2019-02-11T03:17:51.170Z,1.25
2019-02-11T03:20:19.781Z,0.90
2019-02-11T03:22:48.391Z,3.08
2019-02-11T03:25:17.002Z,2.00
2019-02-11T03:27:45.602Z,0.80
2019-02-11T03:30:14.287Z,0.60
2019-02-11T03:32:42.879Z,1.35
2019-02-11T03:35:11.495Z,1.90
2019-02-11T03:37:40.100Z,1.37
2019-02-11T03:40:08.879Z,0.95
2019-02-11T03:42:37.474Z,1.47
2019-02-11T03:45:07.558Z,0.70
2019-02-11T03:47:36.155Z,0.80
2019-02-11T03:50:44.711Z,0.60
2019-02-11T03:53:13.328Z,1.60
2019-02-11T03:55:42.010Z,1.60
2019-02-11T03:58:10.710Z,1.22
2019-02-11T04:00:39.490Z,0.70
2019-02-11T04:03:08.146Z,1.80
2019-02-11T04:05:36.875Z,1.87
2019-02-11T04:08:05.477Z,0.80
2019-02-11T04:10:34.099Z,2.08
2019-02-11T04:13:02.706Z,1.07
2019-02-11T04:15:31.322Z,0.70
2019-02-11T04:17:59.944Z,1.40
2019-02-11T04:20:28.538Z,0.90
2019-02-11T04:22:57.175Z,1.00
2019-02-11T04:25:25.804Z,2.55
2019-02-11T04:27:54.422Z,4.33
2019-02-11T04:30:23.087Z,1.42
2019-02-11T04:32:51.707Z,1.17
2019-02-11T04:35:20.315Z,1.92
2019-02-11T04:37:48.933Z,0.90
2019-02-11T04:40:17.572Z,1.05
2019-02-11T04:42:46.290Z,0.93
2019-02-11T04:45:16.983Z,1.10
2019-02-11T04:47:45.593Z,2.62
2019-02-11T04:50:14.197Z,9.15
2019-02-11T04:52:42.812Z,2.10
2019-02-11T04:55:11.565Z,3.45
2019-02-11T04:57:40.207Z,4.12
2019-02-11T05:00:09.750Z,2.30
2019-02-11T05:02:38.450Z,6.65
2019-02-11T05:05:08.138Z,3.80
2019-02-11T05:07:36.758Z,3.50
2019-02-11T05:10:07.504Z,3.92
2019-02-11T05:12:36.121Z,3.22
2019-02-11T05:15:05.114Z,6.40
2019-02-11T05:17:33.735Z,3.85
2019-02-11T05:20:02.338Z,3.47
2019-02-11T05:22:30.947Z,4.45
2019-02-11T05:24:59.556Z,5.53
2019-02-11T05:27:28.200Z,3.05
2019-02-11T05:29:56.833Z,4.97
2019-02-11T05:32:25.444Z,7.97
2019-02-11T05:34:54.065Z,5.85
2019-02-11T05:37:22.683Z,1.82
2019-02-11T05:39:51.308Z,3.90
2019-02-11T05:42:19.927Z,2.10
2019-02-11T05:44:54.010Z,4.90
2019-02-11T05:47:18.900Z,3.45
2019-02-11T05:49:47.513Z,2.22
2019-02-11T05:52:16.203Z,3.55
2019-02-11T05:54:44.842Z,3.55
2019-02-11T05:57:13.484Z,2.95
2019-02-11T05:59:42.199Z,1.92
2019-02-11T06:02:10.846Z,2.60
2019-02-11T06:04:39.460Z,2.10
2019-02-11T06:07:08.075Z,2.98
2019-02-11T06:09:36.753Z,2.58
2019-02-11T06:12:05.480Z,5.03
2019-02-11T06:14:34.098Z,5.50
2019-02-11T06:17:02.691Z,6.50
2019-02-11T06:19:31.306Z,2.08
2019-02-11T06:21:59.904Z,3.30
2019-02-11T06:24:28.529Z,2.10
2019-02-11T06:26:57.243Z,3.65
2019-02-11T06:29:25.906Z,3.90
2019-02-11T06:31:54.513Z,1.92
2019-02-11T06:34:23.145Z,2.95
2019-02-11T06:36:51.764Z,3.00
2019-02-11T06:39:20.400Z,1.80
2019-02-11T06:41:49.017Z,2.90
2019-02-11T06:47:09.299Z,2.00
2019-02-11T06:49:37.915Z,3.40
2019-02-11T06:52:06.513Z,2.70
2019-02-11T06:54:35.128Z,3.25
2019-02-11T06:57:04.309Z,3.40
2019-02-11T06:59:34.097Z,6.85
2019-02-11T07:02:02.718Z,4.45
2019-02-11T07:04:31.337Z,3.95
2019-02-11T07:06:59.957Z,4.00
2019-02-11T07:09:28.622Z,8.75
2019-02-11T07:11:57.226Z,3.35
2019-02-11T07:14:25.857Z,16.00
2019-02-11T07:16:54.466Z,8.20
2019-02-11T07:19:23.080Z,10.48
2019-02-11T07:21:51.691Z,4.40
2019-02-11T07:24:20.322Z,5.05
2019-02-11T07:26:49.012Z,4.60
2019-02-11T07:29:17.622Z,7.70
2019-02-11T07:31:46.224Z,4.30
2019-02-11T07:34:14.947Z,5.08
2019-02-11T07:36:43.703Z,5.90
2019-02-11T07:39:12.616Z,8.83
2019-02-11T07:42:00.211Z,9.53
2019-02-11T07:44:47.857Z,8.28
2019-02-11T07:47:16.463Z,5.72
2019-02-11T07:49:45.244Z,6.65
2019-02-11T07:52:13.863Z,10.85
2019-02-11T07:54:42.486Z,6.25
2019-02-11T07:57:11.110Z,4.45
2019-02-11T07:59:39.749Z,8.85
2019-02-11T08:02:08.556Z,9.33
2019-02-11T08:04:37.247Z,4.60
2019-02-11T08:07:06.013Z,6.45
2019-02-11T08:09:34.685Z,6.55
2019-02-11T08:12:03.297Z,3.72
2019-02-11T08:14:32.017Z,5.40
2019-02-11T08:17:00.638Z,6.25
2019-02-11T08:19:29.350Z,7.40
2019-02-11T08:21:58.027Z,5.65
2019-02-11T08:24:26.690Z,7.60
2019-02-11T08:26:55.349Z,7.47
2019-02-11T08:29:23.938Z,11.33
2019-02-11T08:31:52.581Z,7.55
2019-02-11T08:34:21.195Z,4.67
2019-02-11T08:36:49.866Z,6.65
2019-02-11T08:39:18.506Z,5.60
2019-02-11T08:41:47.165Z,9.88
2019-02-11T08:44:15.779Z,4.15
2019-02-11T08:46:44.410Z,6.75
2019-02-11T08:49:13.008Z,6.15
2019-02-11T08:51:41.625Z,3.92
2019-02-11T08:54:10.257Z,9.28
2019-02-11T08:56:38.872Z,4.78
2019-02-11T08:59:07.480Z,7.03
2019-02-11T09:01:36.191Z,8.95
2019-02-11T09:04:05.133Z,4.70
2019-02-11T09:06:33.743Z,3.50
2019-02-11T09:09:02.360Z,8.78
2019-02-11T09:11:31.047Z,4.58
2019-02-11T09:13:59.671Z,4.95
2019-02-11T09:16:28.370Z,8.53
2019-02-11T09:18:56.994Z,3.25
2019-02-11T09:21:25.640Z,6.17
2019-02-11T09:23:54.400Z,4.83
2019-02-11T09:26:23.019Z,6.25
2019-02-11T09:28:51.622Z,2.80
2019-02-11T09:31:20.394Z,9.35
2019-02-11T09:33:48.996Z,3.40
2019-02-11T09:36:17.674Z,7.10
2019-02-11T09:38:46.387Z,7.60
2019-02-11T09:41:15.011Z,9.70
2019-02-11T09:43:43.700Z,5.62
2019-02-11T09:46:12.423Z,4.20
2019-02-11T09:48:41.230Z,4.60
2019-02-11T09:51:09.909Z,4.95
2019-02-11T09:53:38.598Z,3.22
2019-02-11T09:56:07.283Z,6.22
2019-02-11T09:58:35.896Z,5.67
2019-02-11T10:01:04.670Z,3.52
2019-02-11T10:03:33.318Z,10.08
2019-02-11T10:06:01.922Z,7.83
2019-02-11T10:08:30.531Z,3.58
2019-02-11T10:10:59.142Z,7.17
2019-02-11T10:13:27.756Z,8.90
2019-02-11T10:15:56.439Z,8.63
2019-02-11T10:18:25.078Z,4.75
2019-02-11T10:20:53.763Z,6.30
2019-02-11T10:23:22.374Z,4.55
2019-02-11T10:25:50.980Z,4.80
2019-02-11T10:28:19.600Z,4.90
2019-02-11T10:30:48.275Z,10.75
2019-02-11T10:33:16.897Z,3.65
2019-02-11T10:35:45.587Z,3.65
2019-02-11T10:38:14.206Z,5.78
2019-02-11T10:40:42.877Z,4.92
2019-02-11T10:43:11.567Z,4.85
2019-02-11T10:45:40.188Z,11.15
2019-02-11T10:48:08.883Z,3.15
2019-02-11T10:50:37.559Z,5.35
2019-02-11T10:53:06.198Z,7.65
2019-02-11T10:55:34.932Z,5.22
2019-02-11T10:58:03.639Z,10.13
2019-02-11T11:03:21.770Z,8.93
2019-02-11T11:05:50.391Z,4.67
2019-02-11T11:08:19.055Z,8.50
2019-02-11T11:10:47.683Z,3.83
2019-02-11T11:13:16.308Z,7.55
2019-02-11T11:15:46.618Z,4.70
2019-02-11T11:18:15.337Z,9.08
2019-02-11T11:20:44.041Z,7.15
2019-02-11T11:23:12.681Z,4.35
2019-02-11T11:25:41.467Z,5.12
2019-02-11T11:28:10.174Z,8.23
2019-02-11T11:30:39.109Z,5.67
2019-02-11T11:33:07.964Z,5.22
2019-02-11T11:35:36.571Z,7.45
2019-02-11T11:38:05.386Z,6.45
2019-02-11T11:40:34.003Z,10.72
2019-02-11T11:43:02.645Z,6.70
2019-02-11T11:45:31.320Z,7.22
2019-02-11T11:48:00.138Z,5.17
2019-02-11T11:50:28.806Z,7.05
2019-02-11T11:52:57.472Z,5.35
2019-02-11T11:55:26.383Z,3.25
2019-02-11T11:57:55.035Z,4.45
2019-02-11T12:00:25.285Z,6.75
2019-02-11T12:03:04.040Z,5.03
2019-02-11T12:05:24.742Z,6.67
2019-02-11T12:07:53.546Z,2.62
2019-02-11T12:10:22.206Z,4.12
2019-02-11T12:12:50.875Z,4.92
2019-02-11T12:15:21.394Z,6.80
2019-02-11T12:17:50.087Z,3.62
2019-02-11T12:20:18.740Z,5.12
2019-02-11T12:22:47.463Z,4.40
2019-02-11T12:25:16.241Z,5.03
2019-02-11T12:27:44.915Z,4.83
2019-02-11T12:30:15.974Z,7.60
2019-02-11T12:32:44.581Z,3.25
2019-02-11T12:35:13.396Z,4.35
2019-02-11T12:37:42.026Z,2.20
2019-02-11T12:40:10.790Z,3.55
2019-02-11T12:42:39.490Z,8.20
2019-02-11T12:45:10.665Z,5.25
2019-02-11T12:47:39.278Z,4.40
2019-02-11T12:50:48.286Z,4.25
2019-02-11T12:53:16.891Z,1.95
2019-02-11T12:55:45.519Z,2.47
2019-02-11T12:58:14.130Z,4.30
2019-02-11T13:00:42.782Z,4.65
2019-02-11T13:03:11.439Z,5.12
2019-02-11T13:05:45.315Z,5.90
2019-02-11T13:08:10.413Z,6.20
2019-02-11T13:10:39.140Z,3.02
2019-02-11T13:13:07.819Z,1.67
2019-02-11T13:15:59.035Z,2.12
2019-02-11T13:18:06.782Z,5.47
2019-02-11T13:20:35.373Z,3.40
2019-02-11T13:23:03.989Z,4.05
2019-02-11T13:25:32.645Z,4.15
2019-02-11T13:28:01.336Z,3.10
2019-02-11T13:30:29.969Z,2.52
2019-02-11T13:32:58.583Z,7.70
2019-02-11T13:35:27.275Z,7.42
2019-02-11T13:37:56.371Z,2.35
2019-02-11T13:40:26.262Z,7.33
2019-02-11T13:42:54.861Z,3.58
2019-02-11T13:45:23.629Z,1.87
2019-02-11T13:47:56.859Z,3.45
2019-02-11T13:50:24.104Z,1.40
2019-02-11T13:52:53.153Z,5.83
2019-02-11T13:55:22.232Z,3.92
2019-02-11T13:58:30.647Z,7.75
2019-02-11T14:00:59.372Z,2.87
2019-02-11T14:03:28.141Z,8.65
2019-02-11T14:05:56.869Z,2.95
2019-02-11T14:08:25.542Z,6.83
2019-02-11T14:10:54.211Z,1.92
2019-02-11T14:13:22.798Z,2.35
2019-02-11T14:15:51.562Z,6.65
2019-02-11T14:18:20.315Z,4.20
2019-02-11T14:20:50.222Z,2.77
2019-02-11T14:23:19.539Z,4.47
2019-02-11T14:25:48.425Z,2.60
2019-02-11T14:28:17.185Z,6.53
2019-02-11T14:30:45.926Z,4.62
2019-02-11T14:33:14.634Z,6.60
2019-02-11T14:35:43.387Z,3.67
2019-02-11T14:38:12.311Z,4.75
2019-02-11T14:40:40.962Z,5.83
2019-02-11T14:43:09.688Z,2.08
2019-02-11T14:45:38.387Z,6.08
2019-02-11T14:48:07.007Z,2.40
2019-02-11T14:50:54.835Z,5.70
2019-02-11T14:53:23.460Z,3.80
2019-02-11T14:55:52.109Z,2.87
2019-02-11T14:58:20.768Z,3.00
2019-02-11T15:00:49.501Z,2.47
2019-02-11T15:03:18.192Z,3.10
2019-02-11T15:05:46.861Z,7.40
2019-02-11T15:08:15.541Z,3.87
2019-02-11T15:10:44.248Z,2.70
2019-02-11T15:13:12.891Z,4.12
2019-02-11T15:15:41.535Z,7.15
2019-02-11T15:18:10.156Z,3.45
2019-02-11T15:20:38.773Z,4.35
2019-02-11T15:23:07.398Z,5.78
2019-02-11T15:25:36.007Z,2.62
2019-02-11T15:28:04.688Z,2.15
2019-02-11T15:30:33.292Z,6.45
2019-02-11T15:33:01.917Z,3.25
2019-02-11T15:35:30.525Z,5.53
2019-02-11T15:37:59.168Z,4.60
2019-02-11T15:40:27.768Z,6.10
2019-02-11T15:42:56.400Z,6.53
2019-02-11T15:45:25.010Z,6.50
2019-02-11T15:47:53.630Z,5.90
2019-02-11T15:50:22.253Z,8.10
2019-02-11T15:52:50.935Z,6.12
2019-02-11T15:55:19.896Z,3.05
2019-02-11T15:57:48.668Z,3.45
2019-02-11T16:00:36.532Z,5.92
2019-02-11T16:03:05.194Z,7.95
2019-02-11T16:05:33.787Z,4.40
2019-02-11T16:08:02.531Z,3.58
2019-02-11T16:13:39.479Z,3.65
2019-02-11T16:16:47.891Z,4.42
2019-02-11T16:19:16.586Z,5.22
2019-02-11T16:21:45.209Z,3.85
2019-02-11T16:24:14.129Z,3.45
2019-02-11T16:26:42.962Z,3.22
2019-02-11T16:29:11.746Z,4.10
2019-02-11T16:31:40.437Z,3.50
2019-02-11T16:34:09.115Z,4.20
2019-02-11T16:36:37.989Z,2.72
2019-02-11T16:39:06.780Z,6.45
2019-02-11T16:41:35.429Z,3.42
2019-02-11T16:44:04.049Z,2.87
2019-02-11T16:46:32.655Z,6.15
2019-02-11T16:49:01.358Z,2.33
2019-02-11T16:51:29.989Z,2.85
2019-02-11T16:53:58.620Z,3.85
2019-02-11T16:56:27.364Z,2.83
2019-02-11T16:58:56.087Z,2.17
2019-02-11T17:01:24.820Z,3.80
2019-02-11T17:03:53.570Z,4.25
2019-02-11T17:06:22.188Z,4.20
2019-02-11T17:08:50.852Z,3.02
2019-02-11T17:11:19.488Z,4.15
2019-02-11T17:13:48.171Z,7.30
2019-02-11T17:16:16.807Z,4.90
2019-02-11T17:18:45.456Z,4.30
2019-02-11T17:21:14.192Z,4.03
2019-02-11T17:23:43.038Z,3.70
2019-02-11T17:26:11.788Z,4.78
2019-02-11T17:28:43.081Z,9.03
2019-02-11T17:31:11.773Z,5.58
2019-02-11T17:33:40.386Z,8.08
2019-02-11T17:36:09.039Z,4.92
2019-02-11T17:38:37.873Z,7.55
2019-02-11T17:41:06.605Z,6.20
2019-02-11T17:43:35.277Z,5.17
2019-02-11T17:48:39.549Z,6.00
2019-02-11T17:51:08.210Z,8.00
2019-02-11T17:53:37.068Z,6.17
2019-02-11T17:56:05.986Z,4.60
2019-02-11T17:58:35.042Z,5.08
2019-02-11T18:01:20.616Z,13.28
2019-02-11T18:03:34.614Z,6.30
2019-02-11T18:06:03.791Z,7.22
2019-02-11T18:08:33.106Z,9.25
2019-02-11T18:11:21.156Z,6.65
2019-02-11T18:13:50.184Z,7.30
2019-02-11T18:16:19.049Z,7.58
2019-02-11T18:18:47.718Z,6.53
2019-02-11T18:21:16.554Z,6.85
2019-02-11T18:23:45.367Z,7.40
2019-02-11T18:26:14.153Z,10.40
2019-02-11T18:28:42.835Z,9.55
2019-02-11T18:31:11.574Z,10.75
2019-02-11T18:33:40.329Z,9.48
2019-02-11T18:36:09.227Z,9.08
2019-02-11T18:38:38.172Z,7.30
2019-02-11T18:41:07.070Z,6.65
2019-02-11T18:43:35.884Z,7.00
2019-02-11T18:46:04.726Z,9.25
2019-02-11T18:48:33.550Z,6.28
2019-02-11T18:51:02.379Z,9.90
2019-02-11T18:53:31.105Z,9.73
2019-02-11T18:55:59.787Z,11.03
2019-02-11T18:58:28.515Z,12.10
2019-02-11T19:00:57.280Z,14.30
2019-02-11T19:03:26.108Z,10.85
2019-02-11T19:05:54.913Z,14.15
2019-02-11T19:08:23.811Z,8.53
2019-02-11T19:10:52.622Z,13.88
2019-02-11T19:13:21.469Z,10.72
2019-02-11T19:15:50.229Z,12.45
2019-02-11T19:18:19.025Z,13.80
2019-02-11T19:20:48.015Z,9.28
2019-02-11T19:23:16.722Z,11.80
2019-02-11T19:25:45.615Z,9.03
2019-02-11T19:28:14.331Z,14.18
2019-02-11T19:30:43.115Z,15.15
2019-02-11T19:33:11.980Z,15.00
2019-02-11T19:35:42.692Z,17.85
2019-02-11T19:38:11.447Z,9.58
2019-02-11T19:40:40.247Z,7.58
2019-02-11T19:43:08.989Z,9.80
2019-02-11T19:45:37.702Z,25.20
2019-02-11T19:48:06.549Z,17.10
2019-02-11T19:50:35.369Z,19.42
2019-02-11T19:53:04.221Z,16.00
2019-02-11T19:59:00.661Z,13.45
2019-02-11T20:01:29.613Z,14.78
2019-02-11T20:04:07.063Z,16.07
2019-02-11T20:06:29.264Z,15.05
2019-02-11T20:08:59.936Z,13.08
2019-02-11T20:11:28.643Z,12.03
2019-02-11T20:13:57.448Z,16.85
2019-02-11T20:16:26.200Z,17.10
2019-02-11T20:18:54.918Z,12.28
2019-02-11T20:21:23.898Z,13.60
2019-02-11T20:23:52.723Z,8.75
2019-02-11T20:26:21.857Z,11.60
2019-02-11T20:28:50.596Z,10.65
2019-02-11T20:31:19.443Z,15.43
2019-02-11T20:33:48.233Z,11.45
2019-02-11T20:36:17.084Z,8.10
2019-02-11T20:38:46.148Z,13.95
2019-02-11T20:41:34.193Z,17.70
2019-02-11T20:44:02.934Z,11.00
2019-02-11T20:46:32.400Z,9.45
2019-02-11T20:49:03.639Z,12.10
2019-02-11T20:51:32.389Z,10.82
2019-02-11T20:54:01.154Z,12.60
2019-02-11T20:56:30.490Z,8.20
2019-02-11T21:02:13.530Z,12.73
2019-02-11T21:04:42.447Z,14.33
2019-02-11T21:07:11.293Z,17.30
2019-02-11T21:09:40.058Z,18.82
2019-02-11T21:12:09.031Z,13.93
2019-02-11T21:14:37.781Z,13.43
2019-02-11T21:17:06.645Z,15.43
2019-02-11T21:19:35.460Z,7.12
2019-02-11T21:22:23.236Z,15.05
2019-02-11T21:24:52.004Z,15.28
2019-02-11T21:27:20.920Z,14.87
2019-02-11T21:29:49.964Z,9.40
2019-02-11T21:32:19.080Z,12.82
2019-02-11T21:38:15.749Z,11.55
2019-02-11T21:40:44.585Z,10.32
2019-02-11T21:43:13.367Z,14.87
2019-02-11T21:45:42.182Z,12.55
2019-02-11T21:48:11.052Z,6.97
2019-02-11T21:50:41.220Z,10.30
2019-02-11T21:53:12.769Z,13.50
2019-02-11T21:55:41.514Z,12.43
2019-02-11T22:00:45.910Z,16.77
2019-02-11T22:03:15.128Z,12.53
2019-02-11T22:05:43.897Z,19.27
2019-02-11T22:08:12.583Z,20.92
2019-02-11T22:10:41.637Z,19.62
2019-02-11T22:13:10.363Z,16.77
2019-02-11T22:15:39.281Z,17.70
2019-02-11T22:18:07.977Z,18.23
2019-02-11T22:20:57.472Z,15.38
2019-02-11T22:23:26.291Z,11.57
2019-02-11T22:25:56.015Z,12.10
2019-02-11T22:28:24.691Z,14.95
2019-02-11T22:30:53.542Z,12.73
2019-02-11T22:33:22.321Z,20.05
2019-02-11T22:35:51.074Z,11.28
2019-02-11T22:38:19.799Z,16.87
2019-02-11T22:40:48.593Z,16.30
2019-02-11T22:46:06.701Z,15.32
2019-02-11T22:48:35.496Z,12.95
2019-02-11T22:51:04.411Z,9.88
2019-02-11T22:53:33.120Z,18.42
2019-02-11T22:56:22.944Z,13.25
2019-02-11T22:58:51.850Z,15.23
2019-02-11T23:01:42.548Z,11.15
2019-02-11T23:04:11.549Z,11.18
2019-02-11T23:06:40.297Z,13.03
2019-02-11T23:09:12.512Z,22.40
2019-02-11T23:11:41.432Z,11.78
2019-02-11T23:14:10.325Z,15.95
2019-02-11T23:16:38.999Z,17.82
2019-02-11T23:19:07.826Z,11.88
2019-02-11T23:21:36.709Z,13.00
2019-02-11T23:24:05.500Z,12.47
2019-02-11T23:26:34.313Z,19.87
2019-02-11T23:29:03.428Z,31.52
2019-02-11T23:31:32.212Z,20.65
2019-02-11T23:34:00.986Z,15.25
2019-02-11T23:36:29.722Z,11.53
2019-02-11T23:38:58.521Z,9.75
2019-02-11T23:41:27.647Z,13.10
2019-02-11T23:43:56.509Z,17.90
2019-02-11T23:46:44.450Z,12.40
2019-02-11T23:49:13.251Z,15.88
2019-02-11T23:51:42.084Z,15.00
2019-02-11T23:54:10.850Z,16.20
2019-02-11T23:56:39.848Z,15.78
2019-02-11T23:59:08.511Z,12.78
